createdAt,value
2019-04-04T00:00:17.215Z,0.00
2019-04-04T00:01:17.478Z,0.00
2019-04-04T00:02:19.089Z,0.00
2019-04-04T00:03:17.184Z,0.00
2019-04-04T00:04:17.189Z,0.00
2019-04-04T00:05:17.160Z,0.00
2019-04-04T00:06:17.146Z,0.00
2019-04-04T00:07:17.140Z,0.00
2019-04-04T00:08:17.126Z,0.00
2019-04-04T00:09:17.115Z,0.00
2019-04-04T00:10:17.115Z,0.00
2019-04-04T00:11:17.093Z,0.00
2019-04-04T00:12:17.083Z,0.00
2019-04-04T00:13:17.080Z,0.00
2019-04-04T00:14:17.095Z,0.00
2019-04-04T00:15:17.062Z,0.00
2019-04-04T00:16:17.040Z,0.00
2019-04-04T00:17:17.031Z,0.00
2019-04-04T00:18:17.019Z,0.00
2019-04-04T00:19:17.011Z,0.00
2019-04-04T00:20:17.011Z,0.00
2019-04-04T00:21:16.989Z,0.00
2019-04-04T00:22:16.986Z,0.00
2019-04-04T00:23:16.972Z,0.00
2019-04-04T00:24:16.979Z,0.00
2019-04-04T00:25:16.959Z,0.00
2019-04-04T00:26:16.935Z,0.00
2019-04-04T00:27:16.928Z,0.00
2019-04-04T00:28:16.940Z,0.00
2019-04-04T00:29:17.780Z,0.00
2019-04-04T00:30:17.980Z,0.00
2019-04-04T00:31:18.832Z,0.00
2019-04-04T00:32:16.872Z,0.00
2019-04-04T00:33:16.863Z,0.00
2019-04-04T00:34:16.857Z,0.00
2019-04-04T00:35:16.852Z,0.00
2019-04-04T00:36:16.837Z,0.00
2019-04-04T00:37:16.823Z,0.00
2019-04-04T00:38:16.811Z,0.00
2019-04-04T00:39:16.798Z,0.00
2019-04-04T00:40:16.800Z,0.00
2019-04-04T00:41:16.776Z,0.00
2019-04-04T00:42:17.485Z,0.00
2019-04-04T00:43:16.769Z,0.00
2019-04-04T00:44:16.744Z,0.00
2019-04-04T00:45:16.750Z,0.00
2019-04-04T00:46:16.723Z,0.00
2019-04-04T00:47:16.712Z,0.00
2019-04-04T00:48:16.703Z,0.00
2019-04-04T00:49:16.697Z,0.00
2019-04-04T00:50:16.694Z,0.00
2019-04-04T00:51:16.672Z,0.00
2019-04-04T00:52:16.659Z,0.00
2019-04-04T00:53:16.650Z,0.00
2019-04-04T00:54:16.638Z,0.00
2019-04-04T00:55:16.644Z,0.00
2019-04-04T00:56:18.049Z,0.00
2019-04-04T00:57:17.290Z,0.00
2019-04-04T00:58:16.596Z,0.00
2019-04-04T00:59:16.588Z,0.00
2019-04-04T01:00:16.604Z,0.00
2019-04-04T01:01:16.785Z,0.00
2019-04-04T01:02:16.564Z,0.00
2019-04-04T01:03:16.543Z,0.00
2019-04-04T01:04:16.532Z,0.00
2019-04-04T01:05:16.543Z,0.00
2019-04-04T01:06:16.512Z,0.00
2019-04-04T01:07:16.500Z,0.00
2019-04-04T01:08:16.492Z,0.00
2019-04-04T01:09:16.488Z,0.00
2019-04-04T01:10:18.812Z,0.00
2019-04-04T01:11:18.323Z,0.00
2019-04-04T01:12:16.450Z,0.00
2019-04-04T01:13:16.439Z,0.00
2019-04-04T01:14:16.428Z,0.00
2019-04-04T01:15:16.417Z,0.00
2019-04-04T01:16:16.419Z,0.00
2019-04-04T01:17:16.466Z,0.00
2019-04-04T01:18:16.391Z,0.00
2019-04-04T01:19:16.378Z,0.00
2019-04-04T01:20:18.083Z,0.00
2019-04-04T01:21:16.366Z,0.00
2019-04-04T01:22:16.343Z,0.00
2019-04-04T01:23:16.333Z,0.00
2019-04-04T01:24:16.325Z,0.00
2019-04-04T01:25:16.313Z,0.00
2019-04-04T01:26:16.322Z,0.00
2019-04-04T01:27:16.295Z,0.00
2019-04-04T01:28:16.283Z,0.00
2019-04-04T01:29:16.279Z,0.00
2019-04-04T01:30:16.260Z,0.00
2019-04-04T01:31:16.264Z,0.00
2019-04-04T01:32:17.080Z,0.00
2019-04-04T01:33:16.255Z,0.00
2019-04-04T01:34:16.218Z,0.00
2019-04-04T01:35:16.210Z,0.00
2019-04-04T01:36:16.213Z,0.00
2019-04-04T01:37:16.184Z,0.00
2019-04-04T01:38:16.176Z,0.00
2019-04-04T01:39:16.167Z,0.00
2019-04-04T01:40:16.157Z,0.00
2019-04-04T01:41:16.150Z,0.00
2019-04-04T01:42:16.131Z,0.00
2019-04-04T01:43:16.123Z,0.00
2019-04-04T01:44:16.111Z,0.00
2019-04-04T01:45:16.134Z,0.00
2019-04-04T01:46:16.102Z,0.00
2019-04-04T01:47:17.076Z,0.00
2019-04-04T01:48:18.454Z,0.00
2019-04-04T01:49:16.056Z,0.00
2019-04-04T01:50:16.050Z,0.00
2019-04-04T01:51:16.045Z,0.00
2019-04-04T01:52:16.025Z,0.00
2019-04-04T01:53:16.017Z,0.00
2019-04-04T01:54:16.009Z,0.00
2019-04-04T01:55:15.990Z,0.00
2019-04-04T01:56:15.991Z,0.00
2019-04-04T01:57:15.969Z,0.00
2019-04-04T01:58:15.958Z,0.00
2019-04-04T01:59:15.950Z,0.00
2019-04-04T02:00:15.953Z,0.00
2019-04-04T02:01:16.622Z,0.00
2019-04-04T02:02:17.773Z,0.00
2019-04-04T02:03:15.908Z,0.00
2019-04-04T02:04:15.898Z,0.00
2019-04-04T02:05:15.887Z,0.00
2019-04-04T02:06:15.883Z,0.00
2019-04-04T02:07:15.865Z,0.00
2019-04-04T02:08:15.858Z,0.00
2019-04-04T02:09:15.891Z,0.00
2019-04-04T02:10:15.832Z,0.00
2019-04-04T02:11:15.834Z,0.00
2019-04-04T02:12:15.808Z,0.00
2019-04-04T02:13:15.805Z,0.00
2019-04-04T02:14:15.791Z,0.00
2019-04-04T02:15:15.778Z,0.00
2019-04-04T02:16:16.886Z,0.00
2019-04-04T02:17:15.761Z,0.00
2019-04-04T02:18:15.745Z,0.00
2019-04-04T02:19:15.736Z,0.00
2019-04-04T02:20:15.727Z,0.00
2019-04-04T02:21:15.726Z,0.00
2019-04-04T02:22:15.711Z,0.00
2019-04-04T02:23:15.695Z,0.00
2019-04-04T02:24:15.683Z,0.00
2019-04-04T02:25:15.674Z,0.00
2019-04-04T02:26:15.662Z,0.00
2019-04-04T02:27:15.661Z,0.00
2019-04-04T02:28:15.648Z,0.00
2019-04-04T02:29:15.661Z,0.00
2019-04-04T02:30:16.525Z,0.00
2019-04-04T02:31:15.611Z,0.00
2019-04-04T02:32:15.614Z,0.00
2019-04-04T02:33:15.589Z,0.00
2019-04-04T02:34:15.577Z,0.00
2019-04-04T02:35:15.574Z,0.00
2019-04-04T02:36:16.706Z,0.00
2019-04-04T02:37:15.557Z,0.00
2019-04-04T02:38:15.537Z,0.00
2019-04-04T02:39:15.523Z,0.00
2019-04-04T02:40:15.551Z,0.00
2019-04-04T02:41:16.191Z,0.00
2019-04-04T02:42:15.534Z,0.00
2019-04-04T02:43:15.495Z,0.00
2019-04-04T02:44:15.471Z,0.00
2019-04-04T02:45:15.462Z,0.00
2019-04-04T02:46:15.455Z,0.00
2019-04-04T02:47:17.476Z,0.00
2019-04-04T02:48:15.432Z,0.00
2019-04-04T02:49:15.419Z,0.00
2019-04-04T02:50:15.414Z,0.00
2019-04-04T02:51:15.398Z,0.00
2019-04-04T02:52:15.396Z,0.00
2019-04-04T02:53:19.458Z,0.00
2019-04-04T02:54:15.368Z,0.00
2019-04-04T02:55:15.353Z,0.00
2019-04-04T02:56:15.344Z,0.00
2019-04-04T02:57:15.355Z,0.00
2019-04-04T02:58:15.517Z,0.00
2019-04-04T02:59:20.012Z,0.00
2019-04-04T03:00:16.303Z,0.00
2019-04-04T03:01:15.290Z,0.00
2019-04-04T03:02:15.287Z,0.00
2019-04-04T03:03:15.266Z,0.00
2019-04-04T03:04:15.258Z,0.00
2019-04-04T03:05:18.804Z,0.00
2019-04-04T03:06:15.236Z,0.00
2019-04-04T03:07:15.237Z,0.00
2019-04-04T03:08:15.217Z,0.00
2019-04-04T03:09:15.288Z,0.00
2019-04-04T03:10:16.504Z,0.00
2019-04-04T03:11:15.185Z,0.00
2019-04-04T03:12:15.182Z,0.00
2019-04-04T03:13:23.227Z,0.00
2019-04-04T03:14:15.150Z,0.00
2019-04-04T03:15:15.144Z,0.00
2019-04-04T03:16:15.134Z,0.00
2019-04-04T03:17:15.139Z,0.00
2019-04-04T03:18:15.135Z,0.00
2019-04-04T03:19:15.099Z,0.00
2019-04-04T03:20:17.331Z,0.00
2019-04-04T03:21:15.086Z,0.00
2019-04-04T03:22:15.083Z,0.00
2019-04-04T03:23:15.058Z,0.00
2019-04-04T03:24:15.048Z,0.00
2019-04-04T03:25:15.720Z,0.00
2019-04-04T03:26:19.055Z,0.00
2019-04-04T03:27:16.024Z,0.00
2019-04-04T03:28:15.038Z,0.00
2019-04-04T03:29:14.998Z,0.00
2019-04-04T03:30:17.111Z,0.00
2019-04-04T03:31:14.973Z,0.00
2019-04-04T03:32:16.754Z,0.00
2019-04-04T03:33:14.964Z,0.00
2019-04-04T03:34:14.940Z,0.00
2019-04-04T03:35:14.929Z,0.00
2019-04-04T03:36:14.919Z,0.00
2019-04-04T03:37:14.933Z,0.00
2019-04-04T03:38:14.923Z,0.00
2019-04-04T03:39:19.343Z,0.00
2019-04-04T03:40:15.894Z,0.00
2019-04-04T03:41:14.879Z,0.00
2019-04-04T03:42:14.865Z,0.00
2019-04-04T03:43:16.117Z,0.00
2019-04-04T03:44:15.174Z,0.00
2019-04-04T03:45:14.829Z,0.00
2019-04-04T03:46:14.814Z,0.00
2019-04-04T03:47:14.818Z,0.00
2019-04-04T03:48:17.747Z,0.00
2019-04-04T03:49:14.799Z,0.00
2019-04-04T03:50:14.820Z,0.00
2019-04-04T03:51:14.781Z,0.00
2019-04-04T03:52:14.779Z,0.00
2019-04-04T03:53:17.512Z,0.00
2019-04-04T03:54:14.735Z,0.00
2019-04-04T03:55:15.745Z,0.00
2019-04-04T03:56:14.705Z,0.00
2019-04-04T03:57:14.705Z,0.00
2019-04-04T03:58:14.685Z,0.00
2019-04-04T03:59:14.677Z,0.00
2019-04-04T04:00:14.671Z,0.00
2019-04-04T04:01:14.676Z,0.00
2019-04-04T04:02:17.858Z,0.00
2019-04-04T04:03:14.643Z,0.00
2019-04-04T04:04:14.630Z,0.00
2019-04-04T04:05:14.845Z,0.00
2019-04-04T04:06:14.601Z,0.00
2019-04-04T04:07:15.386Z,0.00
2019-04-04T04:08:14.586Z,0.00
2019-04-04T04:09:14.569Z,0.00
2019-04-04T04:10:14.558Z,0.00
2019-04-04T04:11:14.547Z,0.00
2019-04-04T04:12:14.536Z,0.00
2019-04-04T04:13:17.304Z,0.00
2019-04-04T04:14:14.540Z,0.00
2019-04-04T04:15:14.505Z,0.00
2019-04-04T04:16:14.493Z,0.00
2019-04-04T04:17:14.485Z,0.00
2019-04-04T04:18:14.484Z,0.00
2019-04-04T04:19:14.460Z,0.00
2019-04-04T04:20:14.467Z,0.00
2019-04-04T04:21:14.446Z,0.00
2019-04-04T04:22:18.034Z,0.00
2019-04-04T04:23:14.431Z,0.00
2019-04-04T04:24:14.415Z,0.00
2019-04-04T04:25:14.403Z,0.00
2019-04-04T04:26:14.395Z,0.00
2019-04-04T04:27:15.405Z,0.00
2019-04-04T04:28:14.403Z,0.00
2019-04-04T04:29:14.357Z,0.00
2019-04-04T04:30:14.347Z,0.00
2019-04-04T04:31:15.444Z,0.00
2019-04-04T04:32:14.335Z,0.00
2019-04-04T04:33:14.331Z,0.00
2019-04-04T04:34:14.327Z,0.00
2019-04-04T04:35:14.302Z,0.00
2019-04-04T04:36:15.816Z,0.00
2019-04-04T04:37:14.273Z,0.00
2019-04-04T04:38:14.271Z,0.00
2019-04-04T04:39:14.280Z,0.00
2019-04-04T04:40:15.317Z,0.00
2019-04-04T04:41:14.231Z,4.00
2019-04-04T04:42:14.220Z,4.00
2019-04-04T04:43:15.795Z,4.00
2019-04-04T04:44:14.198Z,4.00
2019-04-04T04:45:14.196Z,4.00
2019-04-04T04:46:16.933Z,4.00
2019-04-04T04:47:14.168Z,4.00
2019-04-04T04:48:14.166Z,8.00
2019-04-04T04:49:14.147Z,8.00
2019-04-04T04:50:14.234Z,8.00
2019-04-04T04:51:14.124Z,8.00
2019-04-04T04:52:15.140Z,8.00
2019-04-04T04:53:14.118Z,12.00
2019-04-04T04:54:14.093Z,16.00
2019-04-04T04:55:14.084Z,20.00
2019-04-04T04:56:17.356Z,20.00
2019-04-04T04:57:28.449Z,20.00
2019-04-04T04:58:15.061Z,24.00
2019-04-04T04:59:14.073Z,24.00
2019-04-04T05:00:16.112Z,28.00
2019-04-04T05:01:14.021Z,28.00
2019-04-04T05:02:14.036Z,32.00
2019-04-04T05:03:14.009Z,32.00
2019-04-04T05:04:13.990Z,36.00
2019-04-04T05:05:14.036Z,36.00
2019-04-04T05:06:13.969Z,40.00
2019-04-04T05:07:13.957Z,44.00
2019-04-04T05:08:13.976Z,48.00
2019-04-04T05:09:14.646Z,56.00
2019-04-04T05:10:15.049Z,68.00
2019-04-04T05:11:14.644Z,76.00
2019-04-04T05:12:13.910Z,84.00
2019-04-04T05:13:13.904Z,96.00
2019-04-04T05:14:13.885Z,104.00
2019-04-04T05:15:13.895Z,116.00
2019-04-04T05:16:13.863Z,124.00
2019-04-04T05:17:13.853Z,132.00
2019-04-04T05:18:14.094Z,132.00
2019-04-04T05:19:13.832Z,136.00
2019-04-04T05:20:13.822Z,144.00
2019-04-04T05:21:24.370Z,148.00
2019-04-04T05:22:14.819Z,152.00
2019-04-04T05:23:15.607Z,164.00
2019-04-04T05:24:13.781Z,172.00
2019-04-04T05:25:13.771Z,176.00
2019-04-04T05:26:13.758Z,184.00
2019-04-04T05:27:13.757Z,188.00
2019-04-04T05:28:13.736Z,200.00
2019-04-04T05:29:14.154Z,216.00
2019-04-04T05:30:15.809Z,232.00
2019-04-04T05:31:13.727Z,252.00
2019-04-04T05:32:13.699Z,284.00
2019-04-04T05:33:13.684Z,308.00
2019-04-04T05:34:13.696Z,328.00
2019-04-04T05:35:15.200Z,344.00
2019-04-04T05:36:13.664Z,364.00
2019-04-04T05:37:13.642Z,384.00
2019-04-04T05:38:13.664Z,400.00
2019-04-04T05:39:13.634Z,408.00
2019-04-04T05:40:13.633Z,432.00
2019-04-04T05:41:16.326Z,452.00
2019-04-04T05:42:13.613Z,472.00
2019-04-04T05:43:15.114Z,484.00
2019-04-04T05:44:13.586Z,508.00
2019-04-04T05:45:14.306Z,552.00
2019-04-04T05:46:13.570Z,624.00
2019-04-04T05:47:13.552Z,684.00
2019-04-04T05:48:13.530Z,724.00
2019-04-04T05:49:13.528Z,752.00
2019-04-04T05:50:16.301Z,784.00
2019-04-04T05:51:15.244Z,792.00
2019-04-04T05:52:13.515Z,784.00
2019-04-04T05:53:13.478Z,784.00
2019-04-04T05:54:13.514Z,776.00
2019-04-04T05:55:13.453Z,792.00
2019-04-04T05:56:15.221Z,816.00
2019-04-04T05:57:13.435Z,824.00
2019-04-04T05:58:13.422Z,824.00
2019-04-04T05:59:13.426Z,840.00
2019-04-04T06:00:13.414Z,876.00
2019-04-04T06:01:13.418Z,908.00
2019-04-04T06:02:13.392Z,940.00
2019-04-04T06:03:15.202Z,972.00
2019-04-04T06:04:13.381Z,1004.00
2019-04-04T06:05:13.364Z,1032.00
2019-04-04T06:06:13.358Z,1044.00
2019-04-04T06:07:16.261Z,1032.00
2019-04-04T06:08:13.317Z,1012.00
2019-04-04T06:09:14.680Z,1008.00
2019-04-04T06:10:13.299Z,1020.00
2019-04-04T06:11:13.292Z,1028.00
2019-04-04T06:12:13.275Z,1048.00
2019-04-04T06:13:13.269Z,1080.00
2019-04-04T06:14:13.265Z,1136.00
2019-04-04T06:15:13.274Z,1196.00
2019-04-04T06:16:13.242Z,1232.00
2019-04-04T06:17:13.224Z,1244.00
2019-04-04T06:18:13.214Z,1216.00
2019-04-04T06:19:14.831Z,1212.00
2019-04-04T06:20:14.976Z,1212.00
2019-04-04T06:21:13.183Z,1224.00
2019-04-04T06:22:13.171Z,1236.00
2019-04-04T06:23:13.167Z,1248.00
2019-04-04T06:24:13.151Z,1248.00
2019-04-04T06:25:13.156Z,1232.00
2019-04-04T06:26:13.136Z,1220.00
2019-04-04T06:27:13.121Z,1216.00
2019-04-04T06:28:13.107Z,1232.00
2019-04-04T06:29:13.099Z,1260.00
2019-04-04T06:30:13.101Z,1300.00
2019-04-04T06:31:13.098Z,1348.00
2019-04-04T06:32:13.069Z,1388.00
2019-04-04T06:33:13.057Z,1420.00
2019-04-04T06:34:13.051Z,1452.00
2019-04-04T06:35:13.228Z,1464.00
2019-04-04T06:36:13.024Z,1468.00
2019-04-04T06:37:13.014Z,1480.00
2019-04-04T06:38:13.005Z,1488.00
2019-04-04T06:39:12.999Z,1488.00
2019-04-04T06:40:12.996Z,1504.00
2019-04-04T06:41:12.975Z,1532.00
2019-04-04T06:42:12.962Z,1580.00
2019-04-04T06:43:12.958Z,1624.00
2019-04-04T06:44:13.640Z,1672.00
2019-04-04T06:45:15.213Z,1728.00
2019-04-04T06:46:12.922Z,1780.00
2019-04-04T06:47:12.911Z,1840.00
2019-04-04T06:48:12.899Z,1896.00
2019-04-04T06:49:12.900Z,1924.00
2019-04-04T06:50:12.890Z,1960.00
2019-04-04T06:51:14.337Z,1992.00
2019-04-04T06:52:12.880Z,2064.00
2019-04-04T06:53:12.848Z,2140.00
2019-04-04T06:54:12.837Z,2200.00
2019-04-04T06:55:12.847Z,2260.00
2019-04-04T06:56:12.877Z,2320.00
2019-04-04T06:57:12.816Z,2388.00
2019-04-04T06:58:12.797Z,2464.00
2019-04-04T06:59:12.866Z,2520.00
2019-04-04T07:00:15.513Z,2576.00
2019-04-04T07:01:12.767Z,2652.00
2019-04-04T07:02:12.774Z,2752.00
2019-04-04T07:03:12.754Z,2844.00
2019-04-04T07:04:12.732Z,2920.00
2019-04-04T07:05:12.731Z,2948.00
2019-04-04T07:06:12.739Z,3028.00
2019-04-04T07:07:13.147Z,3104.00
2019-04-04T07:08:14.953Z,3136.00
2019-04-04T07:09:13.552Z,3196.00
2019-04-04T07:10:12.685Z,3212.00
2019-04-04T07:11:21.108Z,3236.00
2019-04-04T07:12:21.890Z,3252.00
2019-04-04T07:13:21.512Z,3240.00
2019-04-04T07:14:13.656Z,3244.00
2019-04-04T07:15:15.719Z,3244.00
2019-04-04T07:16:12.615Z,3244.00
2019-04-04T07:17:12.615Z,3236.00
2019-04-04T07:18:12.986Z,3252.00
2019-04-04T07:19:14.991Z,3400.00
2019-04-04T07:20:12.610Z,3808.00
2019-04-04T07:21:12.598Z,4608.00
2019-04-04T07:22:12.614Z,5620.00
2019-04-04T07:23:14.373Z,6588.00
2019-04-04T07:24:12.559Z,7548.00
2019-04-04T07:25:12.594Z,8444.00
2019-04-04T07:26:14.850Z,8972.00
2019-04-04T07:27:15.944Z,8868.00
2019-04-04T07:28:12.491Z,8036.00
2019-04-04T07:29:12.472Z,7048.00
2019-04-04T07:30:15.255Z,6684.00
2019-04-04T07:31:12.461Z,6672.00
2019-04-04T07:32:12.438Z,6680.00
2019-04-04T07:33:12.925Z,6588.00
2019-04-04T07:34:13.743Z,6620.00
2019-04-04T07:35:12.408Z,6752.00
2019-04-04T07:36:12.410Z,6868.00
2019-04-04T07:37:12.385Z,6952.00
2019-04-04T07:38:12.377Z,7080.00
2019-04-04T07:39:12.546Z,7196.00
2019-04-04T07:40:12.354Z,7236.00
2019-04-04T07:41:14.677Z,7208.00
2019-04-04T07:42:15.541Z,7244.00
2019-04-04T07:43:12.324Z,7308.00
2019-04-04T07:44:12.321Z,7308.00
2019-04-04T07:45:14.367Z,7172.00
2019-04-04T07:46:16.555Z,6952.00
2019-04-04T07:47:15.796Z,6772.00
2019-04-04T07:48:12.482Z,6744.00
2019-04-04T07:49:12.260Z,6796.00
2019-04-04T07:50:12.284Z,6852.00
2019-04-04T07:51:12.250Z,6780.00
2019-04-04T07:52:12.231Z,6680.00
2019-04-04T07:53:12.226Z,6592.00
2019-04-04T07:54:12.209Z,6516.00
2019-04-04T07:55:12.219Z,6448.00
2019-04-04T07:56:14.228Z,6324.00
2019-04-04T07:57:12.188Z,6184.00
2019-04-04T07:58:12.169Z,6056.00
2019-04-04T07:59:12.170Z,5872.00
2019-04-04T08:00:12.147Z,5680.00
2019-04-04T08:01:12.150Z,5404.00
2019-04-04T08:02:12.125Z,5132.00
2019-04-04T08:03:12.115Z,4952.00
2019-04-04T08:04:12.121Z,4908.00
2019-04-04T08:05:13.330Z,5000.00
2019-04-04T08:06:12.106Z,5160.00
2019-04-04T08:07:12.087Z,5364.00
2019-04-04T08:08:12.089Z,5672.00
2019-04-04T08:09:12.055Z,6224.00
2019-04-04T08:10:20.472Z,6884.00
2019-04-04T08:11:13.414Z,7472.00
2019-04-04T08:12:12.025Z,7908.00
2019-04-04T08:13:12.026Z,8352.00
2019-04-04T08:14:12.002Z,8588.00
2019-04-04T08:15:12.000Z,8768.00
2019-04-04T08:16:11.991Z,9040.00
2019-04-04T08:17:11.976Z,9300.00
2019-04-04T08:18:11.960Z,9476.00
2019-04-04T08:19:11.948Z,9496.00
2019-04-04T08:20:11.938Z,9420.00
2019-04-04T08:21:11.963Z,9568.00
2019-04-04T08:22:12.068Z,9592.00
2019-04-04T08:23:11.956Z,9188.00
2019-04-04T08:24:11.913Z,8584.00
2019-04-04T08:25:11.885Z,8616.00
2019-04-04T08:26:11.886Z,8952.00
2019-04-04T08:27:11.865Z,8364.00
2019-04-04T08:28:11.859Z,7200.00
2019-04-04T08:29:11.847Z,6420.00
2019-04-04T08:30:11.836Z,6356.00
2019-04-04T08:31:11.849Z,6828.00
2019-04-04T08:32:11.815Z,7004.00
2019-04-04T08:33:11.807Z,6584.00
2019-04-04T08:34:11.797Z,6300.00
2019-04-04T08:35:11.790Z,6476.00
2019-04-04T08:36:11.792Z,6964.00
2019-04-04T08:37:11.774Z,6716.00
2019-04-04T08:38:11.750Z,6916.00
2019-04-04T08:39:11.739Z,7180.00
2019-04-04T08:40:11.731Z,7672.00
2019-04-04T08:41:11.719Z,7624.00
2019-04-04T08:42:11.719Z,8092.00
2019-04-04T08:43:11.717Z,7656.00
2019-04-04T08:44:11.690Z,6564.00
2019-04-04T08:45:11.675Z,5384.00
2019-04-04T08:46:11.672Z,4636.00
2019-04-04T08:47:11.666Z,4232.00
2019-04-04T08:48:11.671Z,4200.00
2019-04-04T08:49:11.634Z,3816.00
2019-04-04T08:50:11.653Z,3784.00
2019-04-04T08:51:11.621Z,4004.00
2019-04-04T08:52:16.884Z,4376.00
2019-04-04T08:53:12.593Z,5164.00
2019-04-04T08:54:11.587Z,5604.00
2019-04-04T08:55:11.603Z,5620.00
2019-04-04T08:56:11.566Z,6136.00
2019-04-04T08:57:11.562Z,6528.00
2019-04-04T08:58:11.540Z,6716.00
2019-04-04T08:59:11.553Z,6692.00
2019-04-04T09:00:11.519Z,6948.00
2019-04-04T09:01:11.509Z,6732.00
2019-04-04T09:02:11.511Z,6828.00
2019-04-04T09:03:11.499Z,7016.00
2019-04-04T09:04:11.479Z,7180.00
2019-04-04T09:05:12.624Z,7468.00
2019-04-04T09:06:11.456Z,7352.00
2019-04-04T09:07:11.456Z,7520.00
2019-04-04T09:08:11.436Z,7388.00
2019-04-04T09:09:11.482Z,6920.00
2019-04-04T09:10:11.415Z,6720.00
2019-04-04T09:11:11.415Z,6668.00
2019-04-04T09:12:11.405Z,6696.00
2019-04-04T09:13:11.383Z,6560.00
2019-04-04T09:14:11.373Z,6364.00
2019-04-04T09:15:11.390Z,6336.00
2019-04-04T09:16:11.354Z,6516.00
2019-04-04T09:17:11.355Z,6836.00
2019-04-04T09:18:11.333Z,7292.00
2019-04-04T09:19:11.322Z,7576.00
2019-04-04T09:20:11.310Z,7596.00
2019-04-04T09:21:11.301Z,7560.00
2019-04-04T09:22:11.750Z,7652.00
2019-04-04T09:23:11.279Z,7456.00
2019-04-04T09:24:11.271Z,6932.00
2019-04-04T09:25:11.259Z,6892.00
2019-04-04T09:26:11.248Z,7076.00
2019-04-04T09:27:11.252Z,7480.00
2019-04-04T09:28:11.231Z,8028.00
2019-04-04T09:29:11.270Z,8888.00
2019-04-04T09:30:11.207Z,9288.00
2019-04-04T09:31:11.200Z,8300.00
2019-04-04T09:32:11.196Z,7404.00
2019-04-04T09:33:11.186Z,7020.00
2019-04-04T09:34:11.171Z,7008.00
2019-04-04T09:35:11.158Z,7132.00
2019-04-04T09:36:11.147Z,7144.00
2019-04-04T09:37:11.146Z,7016.00
2019-04-04T09:38:11.166Z,6964.00
2019-04-04T09:39:11.114Z,7232.00
2019-04-04T09:40:11.104Z,7840.00
2019-04-04T09:41:11.131Z,8204.00
2019-04-04T09:42:11.107Z,7724.00
2019-04-04T09:43:11.123Z,7732.00
2019-04-04T09:44:11.062Z,7764.00
2019-04-04T09:45:11.123Z,8264.00
2019-04-04T09:46:11.052Z,8700.00
2019-04-04T09:47:11.041Z,8980.00
2019-04-04T09:48:11.031Z,9656.00
2019-04-04T09:49:12.973Z,10580.00
2019-04-04T09:50:11.110Z,11368.00
2019-04-04T09:51:11.012Z,12764.00
2019-04-04T09:52:11.010Z,13252.00
2019-04-04T09:53:10.999Z,12608.00
2019-04-04T09:54:10.969Z,12084.00
2019-04-04T09:55:10.946Z,11904.00
2019-04-04T09:56:10.935Z,11684.00
2019-04-04T09:57:10.935Z,11900.00
2019-04-04T09:58:10.914Z,12744.00
2019-04-04T09:59:10.916Z,13736.00
2019-04-04T10:00:10.893Z,14280.00
2019-04-04T10:01:10.885Z,14748.00
2019-04-04T10:02:10.887Z,15468.00
2019-04-04T10:03:10.941Z,15684.00
2019-04-04T10:04:10.851Z,15528.00
2019-04-04T10:05:10.856Z,16288.00
2019-04-04T10:06:10.844Z,16992.00
2019-04-04T10:07:10.831Z,16176.00
2019-04-04T10:08:10.809Z,16608.00
2019-04-04T10:09:15.801Z,16640.00
2019-04-04T10:10:11.789Z,16240.00
2019-04-04T10:11:10.783Z,15376.00
2019-04-04T10:12:10.781Z,15332.00
2019-04-04T10:13:10.775Z,15380.00
2019-04-04T10:14:10.744Z,15716.00
2019-04-04T10:15:10.734Z,15716.00
2019-04-04T10:16:10.724Z,16076.00
2019-04-04T10:17:10.768Z,16800.00
2019-04-04T10:18:10.705Z,16928.00
2019-04-04T10:19:10.693Z,16544.00
2019-04-04T10:20:10.682Z,15284.00
2019-04-04T10:21:12.150Z,14848.00
2019-04-04T10:22:10.661Z,15740.00
2019-04-04T10:23:13.069Z,17152.00
2019-04-04T10:24:10.650Z,17088.00
2019-04-04T10:25:10.645Z,15848.00
2019-04-04T10:26:10.618Z,15768.00
2019-04-04T10:27:10.616Z,16640.00
2019-04-04T10:28:10.607Z,17568.00
2019-04-04T10:29:10.617Z,18752.00
2019-04-04T10:30:10.578Z,19168.00
2019-04-04T10:31:10.574Z,18112.00
2019-04-04T10:32:10.554Z,17312.00
2019-04-04T10:33:10.554Z,16544.00
2019-04-04T10:34:10.534Z,16608.00
2019-04-04T10:35:10.538Z,14732.00
2019-04-04T10:36:10.513Z,12976.00
2019-04-04T10:37:10.503Z,12092.00
2019-04-04T10:38:10.504Z,11100.00
2019-04-04T10:39:10.481Z,10680.00
2019-04-04T10:40:10.470Z,11220.00
2019-04-04T10:41:10.477Z,12144.00
2019-04-04T10:42:10.454Z,13616.00
2019-04-04T10:43:10.500Z,14228.00
2019-04-04T10:44:10.427Z,13888.00
2019-04-04T10:45:10.421Z,12560.00
2019-04-04T10:46:10.407Z,11476.00
2019-04-04T10:47:10.416Z,11396.00
2019-04-04T10:48:10.396Z,11604.00
2019-04-04T10:49:10.375Z,12064.00
2019-04-04T10:50:10.372Z,12356.00
2019-04-04T10:51:10.352Z,11456.00
2019-04-04T10:52:10.343Z,10652.00
2019-04-04T10:53:10.343Z,10856.00
2019-04-04T10:54:10.334Z,11196.00
2019-04-04T10:55:10.313Z,12204.00
2019-04-04T10:56:10.302Z,12168.00
2019-04-04T10:57:10.291Z,11720.00
2019-04-04T10:58:10.291Z,10812.00
2019-04-04T10:59:10.268Z,9836.00
2019-04-04T11:00:10.283Z,9404.00
2019-04-04T11:01:10.247Z,10060.00
2019-04-04T11:02:10.300Z,11016.00
2019-04-04T11:03:10.243Z,11892.00
2019-04-04T11:04:10.220Z,11896.00
2019-04-04T11:05:10.206Z,11236.00
2019-04-04T11:06:10.218Z,9904.00
2019-04-04T11:07:10.186Z,8752.00
2019-04-04T11:08:10.188Z,8332.00
2019-04-04T11:09:10.162Z,8096.00
2019-04-04T11:10:10.165Z,8704.00
2019-04-04T11:11:10.144Z,9460.00
2019-04-04T11:12:10.137Z,9636.00
2019-04-04T11:13:10.134Z,9280.00
2019-04-04T11:14:10.116Z,8960.00
2019-04-04T11:15:10.115Z,8544.00
2019-04-04T11:16:10.089Z,7880.00
2019-04-04T11:17:10.080Z,7004.00
2019-04-04T11:18:10.127Z,7168.00
2019-04-04T11:19:10.057Z,7156.00
2019-04-04T11:20:10.047Z,7136.00
2019-04-04T11:21:10.047Z,7028.00
2019-04-04T11:22:10.025Z,6964.00
2019-04-04T11:23:10.025Z,6748.00
2019-04-04T11:24:10.020Z,6236.00
2019-04-04T11:25:09.997Z,6368.00
2019-04-04T11:26:09.983Z,6488.00
2019-04-04T11:27:09.971Z,6612.00
2019-04-04T11:28:09.989Z,6788.00
2019-04-04T11:29:09.951Z,7132.00
2019-04-04T11:30:09.951Z,7384.00
2019-04-04T11:31:10.239Z,7576.00
2019-04-04T11:32:09.920Z,7756.00
2019-04-04T11:33:09.924Z,7856.00
2019-04-04T11:34:09.898Z,7840.00
2019-04-04T11:35:09.888Z,7696.00
2019-04-04T11:36:09.888Z,7572.00
2019-04-04T11:37:09.868Z,7512.00
2019-04-04T11:38:09.875Z,7304.00
2019-04-04T11:39:09.848Z,7128.00
2019-04-04T11:40:09.836Z,7328.00
2019-04-04T11:41:09.824Z,7712.00
2019-04-04T11:42:09.824Z,7504.00
2019-04-04T11:43:09.833Z,7260.00
2019-04-04T11:44:09.793Z,7544.00
2019-04-04T11:45:09.783Z,7520.00
2019-04-04T11:46:09.776Z,7888.00
2019-04-04T11:47:09.761Z,8236.00
2019-04-04T11:48:09.801Z,8480.00
2019-04-04T11:49:09.742Z,8496.00
2019-04-04T11:50:09.729Z,8532.00
2019-04-04T11:51:12.170Z,8020.00
2019-04-04T11:52:16.744Z,7588.00
2019-04-04T11:53:09.709Z,7724.00
2019-04-04T11:54:09.689Z,8012.00
2019-04-04T11:55:09.743Z,8304.00
2019-04-04T11:56:09.669Z,8596.00
2019-04-04T11:57:09.656Z,8916.00
2019-04-04T11:58:09.656Z,9356.00
2019-04-04T11:59:09.639Z,9876.00
2019-04-04T12:00:09.628Z,10388.00
2019-04-04T12:01:09.624Z,11036.00
2019-04-04T12:02:09.603Z,11840.00
2019-04-04T12:03:09.620Z,12160.00
2019-04-04T12:04:09.582Z,12820.00
2019-04-04T12:05:09.573Z,13644.00
2019-04-04T12:06:09.566Z,14188.00
2019-04-04T12:07:09.550Z,14204.00
2019-04-04T12:08:09.540Z,13936.00
2019-04-04T12:09:09.540Z,13588.00
2019-04-04T12:10:09.519Z,13580.00
2019-04-04T12:11:09.509Z,13680.00
2019-04-04T12:12:09.506Z,13596.00
2019-04-04T12:13:09.486Z,13604.00
2019-04-04T12:14:09.492Z,13632.00
2019-04-04T12:15:09.466Z,13816.00
2019-04-04T12:16:09.454Z,13968.00
2019-04-04T12:17:09.443Z,14376.00
2019-04-04T12:18:09.436Z,14808.00
2019-04-04T12:19:09.441Z,15164.00
2019-04-04T12:20:09.423Z,15756.00
2019-04-04T12:21:09.401Z,16640.00
2019-04-04T12:22:11.797Z,16992.00
2019-04-04T12:23:09.379Z,17504.00
2019-04-04T12:24:09.378Z,18368.00
2019-04-04T12:25:09.358Z,19072.00
2019-04-04T12:26:09.358Z,19424.00
2019-04-04T12:27:09.337Z,19232.00
2019-04-04T12:28:09.326Z,18976.00
2019-04-04T12:29:09.372Z,18656.00
2019-04-04T12:30:09.307Z,18944.00
2019-04-04T12:31:09.295Z,19136.00